createdAt,value
2023-01-30T00:00:10.103Z,-2.2
2023-01-30T00:05:10.149Z,-2.1
2023-01-30T00:10:10.084Z,-2
2023-01-30T00:15:10.085Z,-1.9
2023-01-30T00:20:10.096Z,-1.9
2023-01-30T00:25:10.280Z,-1.9
2023-01-30T00:30:10.084Z,-1.9
2023-01-30T00:35:10.096Z,-1.8
2023-01-30T00:40:10.103Z,-1.8
2023-01-30T00:45:10.091Z,-1.8
2023-01-30T00:50:10.092Z,-1.8
2023-01-30T00:55:10.091Z,-1.8
2023-01-30T01:00:10.092Z,-1.7
2023-01-30T01:05:10.087Z,-1.7
2023-01-30T01:10:10.094Z,-1.6
2023-01-30T01:15:10.100Z,-1.6
2023-01-30T01:20:10.106Z,-1.6
2023-01-30T01:25:10.097Z,-1.6
2023-01-30T01:30:10.088Z,-1.5
2023-01-30T01:35:10.097Z,-1.5
2023-01-30T01:40:10.102Z,-1.6
2023-01-30T01:45:10.099Z,-1.6
2023-01-30T01:50:10.096Z,-1.5
2023-01-30T01:55:10.094Z,-1.5
2023-01-30T02:00:10.104Z,-1.4
2023-01-30T02:05:10.088Z,-1.4
2023-01-30T02:10:10.096Z,-1.3
2023-01-30T02:15:10.090Z,-1.3
2023-01-30T02:20:10.097Z,-1.3
2023-01-30T02:25:10.089Z,-1.2
2023-01-30T02:30:10.109Z,-1.2
2023-01-30T02:35:10.083Z,-1.1
2023-01-30T02:40:10.090Z,-1.1
2023-01-30T02:45:10.088Z,-1.1
2023-01-30T02:50:10.095Z,-1.1
2023-01-30T02:55:10.093Z,-1.1
2023-01-30T03:00:10.091Z,-1.1
2023-01-30T03:05:10.094Z,-1
2023-01-30T03:10:10.103Z,-0.9
2023-01-30T03:15:10.095Z,-0.9
2023-01-30T03:20:10.098Z,-0.9
2023-01-30T03:25:10.093Z,-0.8
2023-01-30T03:30:10.086Z,-0.7
2023-01-30T03:35:10.088Z,-0.7
2023-01-30T03:40:10.106Z,-0.7
2023-01-30T03:45:10.103Z,-0.7
2023-01-30T03:50:10.096Z,-0.7
2023-01-30T03:55:10.087Z,-0.7
2023-01-30T04:00:10.094Z,-0.7
2023-01-30T04:05:10.095Z,-0.7
2023-01-30T04:10:10.098Z,-0.7
2023-01-30T04:15:10.092Z,-0.6
2023-01-30T04:20:10.102Z,-0.6
2023-01-30T04:25:10.088Z,-0.5
2023-01-30T04:30:10.089Z,-0.5
2023-01-30T04:35:10.095Z,-0.4
2023-01-30T04:40:10.090Z,-0.4
2023-01-30T04:45:10.089Z,-0.3
2023-01-30T04:50:10.099Z,-0.2
2023-01-30T04:55:10.096Z,-0.1
2023-01-30T05:00:10.094Z,-0.1
2023-01-30T05:05:10.088Z,0.1
2023-01-30T05:10:10.123Z,0.1
2023-01-30T05:15:10.098Z,0.2
2023-01-30T05:20:10.098Z,0.2
2023-01-30T05:25:10.114Z,0.2
2023-01-30T05:30:10.110Z,0.2
2023-01-30T05:35:10.097Z,0.2
2023-01-30T05:40:10.102Z,0.2
2023-01-30T05:45:10.098Z,0.1
2023-01-30T05:50:10.104Z,0.1
2023-01-30T05:55:10.086Z,0.1
2023-01-30T06:00:10.099Z,0.1
2023-01-30T06:05:10.091Z,0.1
2023-01-30T06:10:10.107Z,0.1
2023-01-30T06:15:10.084Z,0.1
2023-01-30T06:20:10.099Z,0.1
2023-01-30T06:25:10.088Z,0.1
2023-01-30T06:30:10.099Z,0.1
2023-01-30T06:35:10.106Z,0.1
2023-01-30T06:40:10.087Z,0.1
2023-01-30T06:45:10.092Z,-0.1
2023-01-30T06:50:10.088Z,-0.1
2023-01-30T06:55:10.091Z,-0.1
2023-01-30T07:00:10.084Z,-0.1
2023-01-30T07:05:10.123Z,-0.1
2023-01-30T07:10:10.088Z,0.1
2023-01-30T07:15:10.095Z,0.1
2023-01-30T07:20:10.098Z,0.1
2023-01-30T07:25:10.094Z,0.1
2023-01-30T07:30:10.100Z,0.1
2023-01-30T07:35:10.102Z,0.1
2023-01-30T07:40:10.097Z,0.1
2023-01-30T07:45:10.097Z,-0.1
2023-01-30T07:50:10.090Z,-0.1
2023-01-30T07:55:10.101Z,-0.1
2023-01-30T08:00:10.106Z,-0.1
2023-01-30T08:05:10.087Z,-0.1
2023-01-30T08:10:11.965Z,-0.1
2023-01-30T08:15:10.096Z,-0.1
2023-01-30T08:20:10.090Z,-0.1
2023-01-30T08:25:10.099Z,-0.1
2023-01-30T08:30:10.093Z,-0.1
2023-01-30T08:35:10.088Z,-0.1
2023-01-30T08:40:10.101Z,-0.1
2023-01-30T08:45:10.084Z,-0.1
2023-01-30T08:50:10.102Z,-0.1
2023-01-30T08:55:10.109Z,0.1
2023-01-30T09:00:10.102Z,0.1
2023-01-30T09:05:10.099Z,0.1
2023-01-30T09:10:10.108Z,0.2
2023-01-30T09:15:10.092Z,0.2
2023-01-30T09:20:10.118Z,0.4
2023-01-30T09:25:10.098Z,0.4
2023-01-30T09:30:10.112Z,0.5
2023-01-30T09:35:10.120Z,0.5
2023-01-30T09:40:10.099Z,0.7
2023-01-30T09:45:10.083Z,0.8
2023-01-30T09:50:10.094Z,0.8
2023-01-30T09:55:10.095Z,0.9
2023-01-30T10:00:10.089Z,0.9
2023-01-30T10:05:10.192Z,0.9
2023-01-30T10:10:10.102Z,1
2023-01-30T10:15:10.091Z,1
2023-01-30T10:20:10.099Z,1.1
2023-01-30T10:25:10.109Z,1.1
2023-01-30T10:30:10.163Z,1.2
2023-01-30T10:35:10.097Z,1.2
2023-01-30T10:40:10.110Z,1.3
2023-01-30T10:45:10.094Z,1.4
2023-01-30T10:50:10.105Z,1.5
2023-01-30T10:55:10.082Z,1.6
2023-01-30T11:00:10.107Z,1.5
2023-01-30T11:05:10.083Z,1.6
2023-01-30T11:10:10.090Z,1.7
2023-01-30T11:15:10.081Z,1.8
2023-01-30T11:20:12.530Z,1.9
2023-01-30T11:25:10.095Z,2
2023-01-30T11:30:10.086Z,2.1
2023-01-30T11:35:10.114Z,2.2
2023-01-30T11:40:10.115Z,2.3
2023-01-30T11:45:17.492Z,2.2
2023-01-30T11:51:32.062Z,2.2
2023-01-30T11:55:10.101Z,2.2
2023-01-30T12:00:10.091Z,2.4
2023-01-30T12:05:10.101Z,2.6
2023-01-30T12:10:10.094Z,2.7
2023-01-30T12:15:10.092Z,2.8
2023-01-30T12:20:10.085Z,3.1
2023-01-30T12:25:10.096Z,3.4
2023-01-30T12:30:10.105Z,3.4
2023-01-30T12:35:10.087Z,3.6
2023-01-30T12:40:10.093Z,3.5
2023-01-30T12:45:10.097Z,3.7
2023-01-30T12:50:10.091Z,3.8
2023-01-30T12:55:10.102Z,3.8
2023-01-30T13:00:10.089Z,3.5
2023-01-30T13:05:10.094Z,3.5
2023-01-30T13:10:10.114Z,3.5
2023-01-30T13:15:10.103Z,3.4
2023-01-30T13:20:10.089Z,3.6
2023-01-30T13:25:10.098Z,3.6
2023-01-30T13:30:10.095Z,3.6
2023-01-30T13:35:10.093Z,3.5
2023-01-30T13:40:10.099Z,3.3
2023-01-30T13:45:10.213Z,3.1
2023-01-30T13:50:10.097Z,2.9
2023-01-30T13:55:10.170Z,2.8
2023-01-30T14:00:10.161Z,2.7
2023-01-30T14:05:10.126Z,2.7
2023-01-30T14:10:10.345Z,2.7
2023-01-30T14:15:10.112Z,2.7
2023-01-30T14:20:10.334Z,2.8
2023-01-30T14:25:10.130Z,3
2023-01-30T14:30:10.097Z,3.1
2023-01-30T14:35:10.087Z,3.3
2023-01-30T14:40:10.096Z,3.3
2023-01-30T14:45:10.091Z,3.5
2023-01-30T14:50:10.088Z,3.5
2023-01-30T14:55:10.094Z,3.4
2023-01-30T15:00:18.497Z,3.4
2023-01-30T15:05:10.105Z,3.4
2023-01-30T15:10:10.098Z,3.3
2023-01-30T15:15:10.095Z,3.3
2023-01-30T15:20:10.093Z,3.3
2023-01-30T15:25:10.111Z,3.3
2023-01-30T15:30:10.086Z,3.3
2023-01-30T15:35:10.097Z,3.3
2023-01-30T15:40:10.096Z,3.4
2023-01-30T15:45:10.093Z,3.4
2023-01-30T15:50:10.089Z,3.4
2023-01-30T15:55:10.100Z,3.5
2023-01-30T16:00:10.095Z,3.5
2023-01-30T16:05:10.090Z,3.6
2023-01-30T16:10:10.117Z,3.6
2023-01-30T16:15:19.168Z,3.5
2023-01-30T16:20:10.087Z,3.4
2023-01-30T16:25:10.093Z,3.4
2023-01-30T16:30:10.091Z,3.4
2023-01-30T16:35:10.128Z,3.4
2023-01-30T16:40:10.103Z,3.3
2023-01-30T16:45:10.101Z,3.4
2023-01-30T16:50:10.096Z,3.3
2023-01-30T16:55:10.106Z,3.3
2023-01-30T17:00:10.200Z,3.2
2023-01-30T17:05:10.099Z,3.2
2023-01-30T17:10:10.096Z,3.3
2023-01-30T17:15:10.104Z,3.3
2023-01-30T17:20:10.104Z,3.3
2023-01-30T17:25:10.098Z,3.3
2023-01-30T17:30:10.110Z,3.3
2023-01-30T17:35:10.099Z,3.3
2023-01-30T17:40:10.092Z,3.3
2023-01-30T17:45:10.093Z,3.4
2023-01-30T17:50:10.089Z,3.4
2023-01-30T17:55:10.104Z,3.5
2023-01-30T18:00:10.101Z,3.5
2023-01-30T18:05:10.113Z,3.5
2023-01-30T18:10:10.092Z,3.6
2023-01-30T18:15:10.094Z,3.7
2023-01-30T18:20:10.094Z,3.7
2023-01-30T18:25:10.100Z,3.7
2023-01-30T18:30:10.101Z,3.7
2023-01-30T18:35:10.121Z,3.8
2023-01-30T18:40:10.097Z,3.7
2023-01-30T18:45:10.097Z,3.7
2023-01-30T18:50:10.103Z,3.6
2023-01-30T18:55:10.122Z,3.6
2023-01-30T19:00:10.095Z,3.6
2023-01-30T19:05:10.116Z,3.6
2023-01-30T19:10:10.093Z,3.5
2023-01-30T19:15:10.119Z,3.4
2023-01-30T19:20:10.097Z,3.4
2023-01-30T19:25:10.096Z,3.4
2023-01-30T19:30:10.099Z,3.3
2023-01-30T19:35:10.095Z,3.4
2023-01-30T19:40:10.095Z,3.3
2023-01-30T19:45:10.095Z,3.2
2023-01-30T19:50:10.099Z,3.2
2023-01-30T19:55:10.092Z,3.2
2023-01-30T20:00:10.093Z,3.2
2023-01-30T20:05:10.114Z,3.2
2023-01-30T20:10:10.099Z,3.3
2023-01-30T20:15:10.117Z,3.2
2023-01-30T20:20:10.101Z,3.3
2023-01-30T20:25:10.107Z,3.4
2023-01-30T20:30:10.096Z,3.4
2023-01-30T20:35:10.109Z,3.3
2023-01-30T20:40:10.112Z,3.1
2023-01-30T20:45:10.099Z,3.2
2023-01-30T20:50:10.092Z,3.3
2023-01-30T20:55:10.099Z,3.2
2023-01-30T21:00:10.084Z,3.4
2023-01-30T21:05:10.097Z,3.3
2023-01-30T21:10:10.109Z,3.4
2023-01-30T21:15:10.095Z,3.4
2023-01-30T21:20:10.089Z,3.3
2023-01-30T21:25:10.093Z,3.2
2023-01-30T21:30:10.115Z,3.2
2023-01-30T21:35:10.099Z,3.2
2023-01-30T21:40:10.092Z,3.2
2023-01-30T21:45:10.104Z,3.1
2023-01-30T21:50:10.105Z,3.2
2023-01-30T21:55:10.100Z,3.2
2023-01-30T22:00:10.098Z,3.3
2023-01-30T22:05:10.096Z,3.2
2023-01-30T22:10:10.099Z,3.2
2023-01-30T22:15:10.135Z,3.2
2023-01-30T22:20:10.096Z,3.1
2023-01-30T22:25:10.101Z,3.2
2023-01-30T22:30:10.098Z,3.1
2023-01-30T22:35:10.099Z,3
2023-01-30T22:40:10.096Z,2.9
2023-01-30T22:45:10.097Z,2.9
2023-01-30T22:50:10.092Z,2.9
2023-01-30T22:55:10.092Z,2.9
2023-01-30T23:00:10.104Z,2.8
2023-01-30T23:05:10.102Z,2.8
2023-01-30T23:10:10.095Z,2.8
2023-01-30T23:15:10.092Z,2.7
2023-01-30T23:20:10.092Z,2.7
2023-01-30T23:25:10.104Z,2.6
2023-01-30T23:30:10.091Z,2.5
2023-01-30T23:35:10.104Z,2.6
2023-01-30T23:40:10.086Z,2.5
2023-01-30T23:45:10.093Z,2.5
2023-01-30T23:50:10.099Z,2.6
2023-01-30T23:55:10.099Z,2.6
